Waunakee, WI

4:04 AM CDT on May 07, 2015 (GMT -0500)
4th Street Weather | | Change Station
CLOSE
Current Station
Personal Weather Station
Location: Waunakee, WI
Elevation: 942 ft
Nearby Weather Stations

Elev 942 ft 43.19 °N, 89.46 °W | Updated 25 seconds ago

Clear
Clear
59.6 °F
Feels Like 59.6 °F
N
0.0
Wind Variable Wind from SE
Gusts 1.0 mph

Today
High -- | Low -- °F
--% Chance of Precip.
Yesterday
High -- | Low -- °F
Precip. -- in
5:43 AM 8:05 PM
Waning Gibbous, 89% visible
Pressure 30.00 in
Visibility 2.0 miles
Clouds Clear
Dew Point 57 °F
Humidity 91%
Rainfall 0.00 in
Snow Depth Not available.
UV 0 out of 12
Pollen 10.20 out of 12
Air Quality Not available.
Flu Activity Local Activity
METAR KC29 070855Z AUTO 00000KT 2SM CLR 14/13 A3000 RMK AO1 T01350129

More Conditions Fewer Conditions

Pressure 30.00 in
Visibility 2.0 miles
Clouds Clear
Dew Point 57 °F
Humidity 91%
Rainfall 0.00 in
Snow Depth Not available.
UV 0 out of 12
Pollen 10.20 out of 12
Air Quality Not available.
Flu Activity Local Activity
METAR KC29 070855Z AUTO 00000KT 2SM CLR 14/13 A3000 RMK AO1 T01350129

More Conditions Fewer Conditions

10-Day Weather Forecast

Almanac

Astronomy

May. 07, 2015 Rise Set
Actual Time
Civil Twilight
Nautical Twilight
Astronomical Twilight
Moon
Length of Visible Light
Length of Day
Tomorrow will be .
, % of the Moon is Illuminated

Today's Extremes

State Highs State Lows

Community

WunderPhotos

Upload Photos

1,819,133 photos uploaded!

WunderBlogs® & News

Nearby

Air Quality

  Air Quality AQ Index Pollutant
Not available.

Snow Depth

Station Depth Elevation

Earthquake Activity

City Distance Mag. Time & Date
Minimum magnitude displayed is 2.5.

Coastal Water Temperatures

Place Temperature

Stations

Nearby Weather Stations

Station Location Temp. Windchill Dew Point Humidity Wind Precip. Elev Updated Type